Henderson, Nebraska
Current Conditions -  °F | °C
As of 7:35 AM on Wednesday 22 Oct 2014 (Local Time) from KAUH Reporting Station
Haze Haze  
Wind Chill: 54°   Ceiling: Unl
Heat Index: 54°   Visibility: 5mi
Dew Point: 52°   Wind: 10mph
Humidity: 92%   Direction: 160°SSE
Pressure: 30.01"   Gusts: NA
Location:  40.78°N, 97.81°W
Report Text: KAUH 221235Z AUTO 16009KT 5SM BR CLR 12/11 A3001 RMK AO2 T01230111
Loading
Personal Weather Stations






























Interactive Weather Map
Tropical Storm Tracking
New forecast layout! Learn more

10-Day Weather Forecast

Advertisements
Track Severe Weather on mobile